Airfield :
LOGIN :

Register | Disclaimer

   EN    FR    IT 

 










Legend :    VFR   Marginal VFR   IFR   Intensive IFR   Very Intensive IFR
Visi :
Ceiling :
>= 8 km
>= 3000ft
5 to 8 km
1000 to 3000 ft
1500m to 5 km
500 to 1000 ft
800 to 1500m
200 to 500 ft
< 800m
< 200 ft
Symbols :   Thunderstorms  Fog  Heavy snow  Heavy precipitations  Wind > 20 kt
SIGMETs :     Misc.  Thunderstorms  Icing  Turbulence  Mountain Waves  Volcanic Ashes







- Airport Elevation : 464 ft
- IATA code : EVX
- Download approach charts


LFOE - Evreux

CURRENT METAR :
  • 180730Z AUTO 26016KT 9999 BKN014 OVC021 10/09 Q1005

EXPIRED METARs :
  • 180700Z AUTO 26019G31KT 9999 BKN016 OVC024 11/09 Q1004
  • 180630Z AUTO 25020KT 9999 BKN015 OVC024 10/09 Q1004
  • 180600Z AUTO 24020KT 9999 BKN016 OVC024 10/08 Q1004
  • 180530Z AUTO 24019G31KT 9999 BKN014 OVC020 10/08 Q1004
  • 180500Z AUTO 24021G32KT 9000 -RADZ OVC017 10/08 Q1004

TAF AMD TAF LFOE
Valid from the 18 at 05:00 until the 19 at 03:00 UTC


180544Z 1805/1903 27020G30KT 9999 OVC014
BECMG 1808/1810 BKN020 BKN035
TEMPO 1806/1810 28020G40KT 5000 -RA BKN008
PROB40 1806/1810 29030G45KT
BECMG 1812/1814 27012G22KT SCT030 SCT050
TEMPO 1814/1903 30020G35KT 4000 -SHRA BKN020
PROB30
TEMPO 1814/1903 30025G40KT 3000 SHRA SCT008 BKN015TCU
No reported NOTAMs for that airfield.
3 SIGMETs reported for the Paris FIR (LFFF) :
 
Severe turbulence
LFFF SIGMET 4 VALID 180600/180900 LFPW
LFFF PARIS FIR/UIR SEV TURB FCST NW OF LINE N4745 E00445 - N4715 W00015 SFC/FL060 STNR NC=
SIGMET 2  cancelation
LFFF SIGMET 3 VALID 180445/180900 LFPW
LFFF PARIS FIR/UIR CNL SIGMET 2 180500/180900=
SIGMET 2  CANCELED :
Severe turbulence
LFFF SIGMET 2 VALID 180500/180900 LFPW
LFFF PARIS FIR/UIR SEV TURB FCST WI N5000 E00500 - N4930 E00600 - N4900 E00445 - N4830 E00530 - N4730 E00415 - N4700 E00430 - N4700 E00400 - N5000 E00500 SFC/FL060 STNR INTSF=



MET'MAP, your aeronautical weather chart ! - Copyright ORBIFLY December 2007 - Disclaimer

ORBIFLY MET'MAP TEAM :

Programming & Development : Alexandra Zaïnal
Concept & Development : Baudouin d'Aumeries
Co-Development & Prog : Marc-Olivier Méhu
Technical & hardware support : Manuel Goepfert

Contact : metmap@orbifly.com




SOURCES & CREDITS :

   NOAA